sensor_id;sensor_type;location;lat;lon;timestamp;P1;durP1;ratioP1;P2;durP2;ratioP2
6755;SDS011;3415;51.148;7.014;2023-09-12T00:00:11;5.60;;;3.50;;
6755;SDS011;3415;51.148;7.014;2023-09-12T00:02:39;3.53;;;3.20;;
6755;SDS011;3415;51.148;7.014;2023-09-12T00:05:06;6.40;;;4.20;;
6755;SDS011;3415;51.148;7.014;2023-09-12T00:07:34;5.97;;;3.63;;
6755;SDS011;3415;51.148;7.014;2023-09-12T00:10:01;5.70;;;3.77;;
6755;SDS011;3415;51.148;7.014;2023-09-12T00:12:28;10.60;;;4.47;;
6755;SDS011;3415;51.148;7.014;2023-09-12T00:14:55;6.23;;;3.90;;
6755;SDS011;3415;51.148;7.014;2023-09-12T00:17:22;5.93;;;3.73;;
6755;SDS011;3415;51.148;7.014;2023-09-12T00:19:50;5.00;;;3.40;;
6755;SDS011;3415;51.148;7.014;2023-09-12T00:22:17;4.10;;;3.60;;
6755;SDS011;3415;51.148;7.014;2023-09-12T00:24:43;4.67;;;2.80;;
6755;SDS011;3415;51.148;7.014;2023-09-12T00:27:10;3.20;;;2.90;;
6755;SDS011;3415;51.148;7.014;2023-09-12T00:29:37;3.13;;;2.83;;
6755;SDS011;3415;51.148;7.014;2023-09-12T00:32:04;3.50;;;3.00;;
6755;SDS011;3415;51.148;7.014;2023-09-12T00:34:31;3.93;;;3.07;;
6755;SDS011;3415;51.148;7.014;2023-09-12T00:36:59;4.30;;;3.23;;
6755;SDS011;3415;51.148;7.014;2023-09-12T00:39:26;2.93;;;2.70;;
6755;SDS011;3415;51.148;7.014;2023-09-12T00:41:53;6.53;;;3.20;;
6755;SDS011;3415;51.148;7.014;2023-09-12T00:44:20;6.33;;;3.40;;
6755;SDS011;3415;51.148;7.014;2023-09-12T00:46:46;2.80;;;2.33;;
6755;SDS011;3415;51.148;7.014;2023-09-12T00:49:15;6.47;;;3.60;;
6755;SDS011;3415;51.148;7.014;2023-09-12T00:51:43;3.90;;;3.43;;
6755;SDS011;3415;51.148;7.014;2023-09-12T00:54:13;6.53;;;3.37;;
6755;SDS011;3415;51.148;7.014;2023-09-12T00:56:40;4.17;;;3.30;;
6755;SDS011;3415;51.148;7.014;2023-09-12T00:59:07;5.27;;;3.57;;
6755;SDS011;3415;51.148;7.014;2023-09-12T01:01:36;3.03;;;2.57;;
6755;SDS011;3415;51.148;7.014;2023-09-12T01:04:02;5.67;;;3.50;;
6755;SDS011;3415;51.148;7.014;2023-09-12T01:06:29;3.13;;;2.80;;
6755;SDS011;3415;51.148;7.014;2023-09-12T01:08:59;3.50;;;3.20;;
6755;SDS011;3415;51.148;7.014;2023-09-12T01:11:28;5.57;;;2.90;;
6755;SDS011;3415;51.148;7.014;2023-09-12T01:13:55;2.73;;;2.50;;
6755;SDS011;3415;51.148;7.014;2023-09-12T01:16:22;3.37;;;2.73;;
6755;SDS011;3415;51.148;7.014;2023-09-12T01:18:49;5.20;;;2.93;;
6755;SDS011;3415;51.148;7.014;2023-09-12T01:21:22;6.33;;;2.80;;
6755;SDS011;3415;51.148;7.014;2023-09-12T01:27:19;6.13;;;2.97;;
6755;SDS011;3415;51.148;7.014;2023-09-12T01:29:49;4.10;;;2.70;;
6755;SDS011;3415;51.148;7.014;2023-09-12T01:32:18;3.57;;;3.27;;
6755;SDS011;3415;51.148;7.014;2023-09-12T01:34:46;2.87;;;2.60;;
6755;SDS011;3415;51.148;7.014;2023-09-12T01:37:13;2.97;;;2.67;;
6755;SDS011;3415;51.148;7.014;2023-09-12T01:39:40;7.30;;;2.57;;
6755;SDS011;3415;51.148;7.014;2023-09-12T01:42:08;4.33;;;2.73;;
6755;SDS011;3415;51.148;7.014;2023-09-12T01:44:39;3.53;;;2.80;;
6755;SDS011;3415;51.148;7.014;2023-09-12T01:47:07;4.20;;;2.63;;
6755;SDS011;3415;51.148;7.014;2023-09-12T01:49:36;3.30;;;2.20;;
6755;SDS011;3415;51.148;7.014;2023-09-12T01:52:05;2.70;;;2.50;;
6755;SDS011;3415;51.148;7.014;2023-09-12T01:54:32;5.67;;;2.40;;
6755;SDS011;3415;51.148;7.014;2023-09-12T01:57:00;5.80;;;3.17;;
6755;SDS011;3415;51.148;7.014;2023-09-12T01:59:28;3.63;;;3.00;;
6755;SDS011;3415;51.148;7.014;2023-09-12T02:01:56;3.27;;;2.63;;
6755;SDS011;3415;51.148;7.014;2023-09-12T02:04:23;5.23;;;3.40;;
6755;SDS011;3415;51.148;7.014;2023-09-12T02:06:50;7.63;;;2.80;;
6755;SDS011;3415;51.148;7.014;2023-09-12T02:09:17;4.00;;;3.37;;
6755;SDS011;3415;51.148;7.014;2023-09-12T02:11:43;4.40;;;3.10;;
6755;SDS011;3415;51.148;7.014;2023-09-12T02:14:10;3.93;;;3.00;;
6755;SDS011;3415;51.148;7.014;2023-09-12T02:16:37;5.60;;;3.47;;
6755;SDS011;3415;51.148;7.014;2023-09-12T02:19:05;6.50;;;3.03;;
6755;SDS011;3415;51.148;7.014;2023-09-12T02:21:32;3.97;;;3.67;;
6755;SDS011;3415;51.148;7.014;2023-09-12T02:23:59;5.20;;;3.33;;
6755;SDS011;3415;51.148;7.014;2023-09-12T02:26:26;4.50;;;4.00;;
6755;SDS011;3415;51.148;7.014;2023-09-12T02:28:53;5.97;;;3.90;;
6755;SDS011;3415;51.148;7.014;2023-09-12T02:31:20;4.70;;;3.90;;
6755;SDS011;3415;51.148;7.014;2023-09-12T02:33:46;6.73;;;4.00;;
6755;SDS011;3415;51.148;7.014;2023-09-12T02:36:15;4.47;;;3.37;;
6755;SDS011;3415;51.148;7.014;2023-09-12T02:38:42;4.60;;;3.57;;
6755;SDS011;3415;51.148;7.014;2023-09-12T02:41:08;3.93;;;3.33;;
6755;SDS011;3415;51.148;7.014;2023-09-12T02:43:35;7.40;;;3.87;;
6755;SDS011;3415;51.148;7.014;2023-09-12T02:46:02;5.80;;;3.97;;
6755;SDS011;3415;51.148;7.014;2023-09-12T02:48:29;5.13;;;3.87;;
6755;SDS011;3415;51.148;7.014;2023-09-12T02:50:56;7.27;;;3.90;;
6755;SDS011;3415;51.148;7.014;2023-09-12T02:53:24;4.30;;;3.90;;
6755;SDS011;3415;51.148;7.014;2023-09-12T02:55:51;7.00;;;5.37;;
6755;SDS011;3415;51.148;7.014;2023-09-12T02:58:19;7.57;;;5.10;;
6755;SDS011;3415;51.148;7.014;2023-09-12T03:00:46;7.63;;;4.97;;
6755;SDS011;3415;51.148;7.014;2023-09-12T03:03:15;8.33;;;5.00;;
6755;SDS011;3415;51.148;7.014;2023-09-12T03:05:42;6.40;;;5.07;;
6755;SDS011;3415;51.148;7.014;2023-09-12T03:08:08;8.83;;;5.60;;
6755;SDS011;3415;51.148;7.014;2023-09-12T03:10:37;10.97;;;6.17;;
6755;SDS011;3415;51.148;7.014;2023-09-12T03:13:03;8.27;;;6.00;;
6755;SDS011;3415;51.148;7.014;2023-09-12T03:15:35;10.73;;;5.60;;
6755;SDS011;3415;51.148;7.014;2023-09-12T03:18:03;9.13;;;6.43;;
6755;SDS011;3415;51.148;7.014;2023-09-12T03:20:30;10.10;;;6.80;;
6755;SDS011;3415;51.148;7.014;2023-09-12T03:22:57;8.50;;;5.97;;
6755;SDS011;3415;51.148;7.014;2023-09-12T03:25:24;23.43;;;6.97;;
6755;SDS011;3415;51.148;7.014;2023-09-12T03:27:52;9.07;;;6.97;;
6755;SDS011;3415;51.148;7.014;2023-09-12T03:30:19;11.73;;;6.70;;
6755;SDS011;3415;51.148;7.014;2023-09-12T03:32:46;9.00;;;6.17;;
6755;SDS011;3415;51.148;7.014;2023-09-12T03:35:13;9.50;;;5.63;;
6755;SDS011;3415;51.148;7.014;2023-09-12T03:37:40;9.90;;;5.83;;
6755;SDS011;3415;51.148;7.014;2023-09-12T03:40:08;9.10;;;6.17;;
6755;SDS011;3415;51.148;7.014;2023-09-12T03:42:36;10.33;;;6.07;;
6755;SDS011;3415;51.148;7.014;2023-09-12T03:45:05;9.37;;;5.77;;
6755;SDS011;3415;51.148;7.014;2023-09-12T03:47:32;6.83;;;5.10;;
6755;SDS011;3415;51.148;7.014;2023-09-12T03:49:59;10.03;;;5.80;;
6755;SDS011;3415;51.148;7.014;2023-09-12T03:52:27;9.40;;;6.03;;
6755;SDS011;3415;51.148;7.014;2023-09-12T03:54:54;10.23;;;5.50;;
6755;SDS011;3415;51.148;7.014;2023-09-12T03:57:20;6.37;;;4.97;;
6755;SDS011;3415;51.148;7.014;2023-09-12T03:59:47;5.77;;;4.80;;
6755;SDS011;3415;51.148;7.014;2023-09-12T04:02:17;8.67;;;4.60;;
6755;SDS011;3415;51.148;7.014;2023-09-12T04:04:44;6.27;;;4.40;;
6755;SDS011;3415;51.148;7.014;2023-09-12T04:07:11;6.60;;;3.97;;
6755;SDS011;3415;51.148;7.014;2023-09-12T04:09:38;10.00;;;4.93;;
6755;SDS011;3415;51.148;7.014;2023-09-12T04:12:05;6.80;;;3.97;;
6755;SDS011;3415;51.148;7.014;2023-09-12T04:14:34;9.33;;;4.27;;
6755;SDS011;3415;51.148;7.014;2023-09-12T04:17:01;6.33;;;4.20;;
6755;SDS011;3415;51.148;7.014;2023-09-12T04:19:30;9.77;;;3.87;;
6755;SDS011;3415;51.148;7.014;2023-09-12T04:21:56;5.50;;;3.60;;
6755;SDS011;3415;51.148;7.014;2023-09-12T04:24:24;4.80;;;3.83;;
6755;SDS011;3415;51.148;7.014;2023-09-12T04:26:53;4.77;;;4.20;;
6755;SDS011;3415;51.148;7.014;2023-09-12T04:29:20;4.90;;;4.00;;
6755;SDS011;3415;51.148;7.014;2023-09-12T04:31:47;5.47;;;3.97;;
6755;SDS011;3415;51.148;7.014;2023-09-12T04:34:13;4.33;;;3.67;;
6755;SDS011;3415;51.148;7.014;2023-09-12T04:36:42;7.90;;;3.87;;
6755;SDS011;3415;51.148;7.014;2023-09-12T04:39:09;4.77;;;3.30;;
6755;SDS011;3415;51.148;7.014;2023-09-12T04:41:35;5.23;;;3.80;;
6755;SDS011;3415;51.148;7.014;2023-09-12T04:44:02;5.03;;;3.90;;
6755;SDS011;3415;51.148;7.014;2023-09-12T04:46:29;4.43;;;3.90;;
6755;SDS011;3415;51.148;7.014;2023-09-12T04:48:56;4.70;;;3.13;;
6755;SDS011;3415;51.148;7.014;2023-09-12T04:51:23;4.80;;;3.83;;
6755;SDS011;3415;51.148;7.014;2023-09-12T04:53:53;4.87;;;3.87;;
6755;SDS011;3415;51.148;7.014;2023-09-12T04:56:20;5.10;;;3.63;;
6755;SDS011;3415;51.148;7.014;2023-09-12T04:58:49;5.57;;;4.10;;
6755;SDS011;3415;51.148;7.014;2023-09-12T05:01:16;5.30;;;3.83;;
6755;SDS011;3415;51.148;7.014;2023-09-12T05:03:43;8.37;;;4.20;;
6755;SDS011;3415;51.148;7.014;2023-09-12T05:06:10;11.93;;;4.13;;
6755;SDS011;3415;51.148;7.014;2023-09-12T05:08:38;7.33;;;4.13;;
6755;SDS011;3415;51.148;7.014;2023-09-12T05:11:06;8.83;;;4.60;;
6755;SDS011;3415;51.148;7.014;2023-09-12T05:13:33;4.70;;;4.20;;
6755;SDS011;3415;51.148;7.014;2023-09-12T05:16:00;7.23;;;4.23;;
6755;SDS011;3415;51.148;7.014;2023-09-12T05:18:27;4.53;;;4.07;;
6755;SDS011;3415;51.148;7.014;2023-09-12T05:20:54;5.60;;;3.60;;
6755;SDS011;3415;51.148;7.014;2023-09-12T05:23:20;5.50;;;3.90;;
6755;SDS011;3415;51.148;7.014;2023-09-12T05:25:47;7.07;;;4.30;;
6755;SDS011;3415;51.148;7.014;2023-09-12T05:28:15;7.83;;;4.27;;
6755;SDS011;3415;51.148;7.014;2023-09-12T05:30:42;7.10;;;4.47;;
6755;SDS011;3415;51.148;7.014;2023-09-12T05:33:09;4.73;;;3.93;;
6755;SDS011;3415;51.148;7.014;2023-09-12T05:35:36;5.60;;;4.00;;
6755;SDS011;3415;51.148;7.014;2023-09-12T05:38:04;5.73;;;3.90;;
6755;SDS011;3415;51.148;7.014;2023-09-12T05:40:30;7.60;;;4.67;;
6755;SDS011;3415;51.148;7.014;2023-09-12T05:42:57;7.23;;;4.37;;
6755;SDS011;3415;51.148;7.014;2023-09-12T05:45:25;5.73;;;4.10;;
6755;SDS011;3415;51.148;7.014;2023-09-12T05:47:54;6.53;;;4.10;;
6755;SDS011;3415;51.148;7.014;2023-09-12T05:50:21;12.13;;;4.80;;
6755;SDS011;3415;51.148;7.014;2023-09-12T05:52:48;7.23;;;5.10;;
6755;SDS011;3415;51.148;7.014;2023-09-12T05:55:16;7.27;;;5.37;;
6755;SDS011;3415;51.148;7.014;2023-09-12T05:57:42;7.77;;;5.00;;
6755;SDS011;3415;51.148;7.014;2023-09-12T06:00:10;7.93;;;4.93;;
6755;SDS011;3415;51.148;7.014;2023-09-12T06:02:38;9.17;;;5.10;;
6755;SDS011;3415;51.148;7.014;2023-09-12T06:05:05;6.57;;;4.70;;
6755;SDS011;3415;51.148;7.014;2023-09-12T06:07:32;7.10;;;4.80;;
6755;SDS011;3415;51.148;7.014;2023-09-12T06:10:00;5.17;;;4.50;;
6755;SDS011;3415;51.148;7.014;2023-09-12T06:12:26;8.50;;;5.93;;
6755;SDS011;3415;51.148;7.014;2023-09-12T06:14:53;25.83;;;8.90;;
6755;SDS011;3415;51.148;7.014;2023-09-12T06:17:21;18.43;;;9.27;;
6755;SDS011;3415;51.148;7.014;2023-09-12T06:19:49;17.63;;;9.33;;
6755;SDS011;3415;51.148;7.014;2023-09-12T06:22:16;13.83;;;9.67;;
6755;SDS011;3415;51.148;7.014;2023-09-12T06:24:43;16.47;;;9.87;;
6755;SDS011;3415;51.148;7.014;2023-09-12T06:27:10;14.10;;;9.30;;
6755;SDS011;3415;51.148;7.014;2023-09-12T06:29:44;19.77;;;9.40;;
6755;SDS011;3415;51.148;7.014;2023-09-12T06:32:11;12.77;;;7.80;;
6755;SDS011;3415;51.148;7.014;2023-09-12T06:34:38;13.13;;;8.73;;
6755;SDS011;3415;51.148;7.014;2023-09-12T06:37:06;12.33;;;6.87;;
6755;SDS011;3415;51.148;7.014;2023-09-12T06:39:33;12.50;;;8.10;;
6755;SDS011;3415;51.148;7.014;2023-09-12T06:41:59;10.20;;;8.37;;
6755;SDS011;3415;51.148;7.014;2023-09-12T06:44:27;10.90;;;7.33;;
6755;SDS011;3415;51.148;7.014;2023-09-12T06:46:54;11.03;;;6.03;;
6755;SDS011;3415;51.148;7.014;2023-09-12T06:49:21;6.77;;;5.30;;
6755;SDS011;3415;51.148;7.014;2023-09-12T06:51:48;8.83;;;5.93;;
6755;SDS011;3415;51.148;7.014;2023-09-12T06:54:16;7.43;;;5.60;;
6755;SDS011;3415;51.148;7.014;2023-09-12T06:56:43;7.13;;;5.70;;
6755;SDS011;3415;51.148;7.014;2023-09-12T06:59:10;8.17;;;5.47;;
6755;SDS011;3415;51.148;7.014;2023-09-12T07:01:37;12.53;;;4.60;;
6755;SDS011;3415;51.148;7.014;2023-09-12T07:04:04;8.17;;;4.90;;
6755;SDS011;3415;51.148;7.014;2023-09-12T07:06:31;5.63;;;4.30;;
6755;SDS011;3415;51.148;7.014;2023-09-12T07:08:58;8.93;;;4.70;;
6755;SDS011;3415;51.148;7.014;2023-09-12T07:11:27;9.33;;;6.10;;
6755;SDS011;3415;51.148;7.014;2023-09-12T07:13:53;16.13;;;6.20;;
6755;SDS011;3415;51.148;7.014;2023-09-12T07:16:20;8.77;;;5.57;;
6755;SDS011;3415;51.148;7.014;2023-09-12T07:18:47;6.70;;;5.40;;
6755;SDS011;3415;51.148;7.014;2023-09-12T07:21:15;5.20;;;4.57;;
6755;SDS011;3415;51.148;7.014;2023-09-12T07:23:42;8.60;;;6.23;;
6755;SDS011;3415;51.148;7.014;2023-09-12T07:26:11;8.67;;;5.63;;
6755;SDS011;3415;51.148;7.014;2023-09-12T07:28:40;15.03;;;6.20;;
6755;SDS011;3415;51.148;7.014;2023-09-12T07:31:07;9.30;;;6.10;;
6755;SDS011;3415;51.148;7.014;2023-09-12T07:33:35;6.87;;;5.67;;
6755;SDS011;3415;51.148;7.014;2023-09-12T07:36:02;5.60;;;5.00;;
6755;SDS011;3415;51.148;7.014;2023-09-12T07:38:30;6.50;;;4.97;;
6755;SDS011;3415;51.148;7.014;2023-09-12T07:40:56;7.60;;;5.57;;
6755;SDS011;3415;51.148;7.014;2023-09-12T07:43:25;7.70;;;5.10;;
6755;SDS011;3415;51.148;7.014;2023-09-12T07:45:55;6.07;;;4.63;;
6755;SDS011;3415;51.148;7.014;2023-09-12T07:48:22;6.30;;;4.90;;
6755;SDS011;3415;51.148;7.014;2023-09-12T07:50:49;7.57;;;4.80;;
6755;SDS011;3415;51.148;7.014;2023-09-12T07:53:16;6.47;;;4.70;;
6755;SDS011;3415;51.148;7.014;2023-09-12T07:55:43;5.33;;;4.40;;
6755;SDS011;3415;51.148;7.014;2023-09-12T07:58:11;7.37;;;4.73;;
6755;SDS011;3415;51.148;7.014;2023-09-12T08:00:39;7.17;;;4.00;;
6755;SDS011;3415;51.148;7.014;2023-09-12T08:03:07;5.43;;;3.93;;
6755;SDS011;3415;51.148;7.014;2023-09-12T08:05:34;4.10;;;3.70;;
6755;SDS011;3415;51.148;7.014;2023-09-12T08:08:01;5.20;;;3.50;;
6755;SDS011;3415;51.148;7.014;2023-09-12T08:10:28;3.93;;;3.50;;
6755;SDS011;3415;51.148;7.014;2023-09-12T08:12:55;3.73;;;3.40;;
6755;SDS011;3415;51.148;7.014;2023-09-12T08:15:22;11.27;;;2.90;;
6755;SDS011;3415;51.148;7.014;2023-09-12T08:17:49;4.70;;;2.93;;
6755;SDS011;3415;51.148;7.014;2023-09-12T08:20:18;3.27;;;2.97;;
6755;SDS011;3415;51.148;7.014;2023-09-12T08:22:45;3.53;;;2.77;;
6755;SDS011;3415;51.148;7.014;2023-09-12T08:25:12;3.53;;;2.80;;
6755;SDS011;3415;51.148;7.014;2023-09-12T08:27:39;2.73;;;2.50;;
6755;SDS011;3415;51.148;7.014;2023-09-12T08:30:08;3.83;;;3.33;;
6755;SDS011;3415;51.148;7.014;2023-09-12T08:32:36;3.97;;;2.40;;
6755;SDS011;3415;51.148;7.014;2023-09-12T08:35:04;4.20;;;2.70;;
6755;SDS011;3415;51.148;7.014;2023-09-12T08:37:33;3.33;;;2.50;;
6755;SDS011;3415;51.148;7.014;2023-09-12T08:40:00;3.37;;;2.93;;
6755;SDS011;3415;51.148;7.014;2023-09-12T08:42:32;2.93;;;2.73;;
6755;SDS011;3415;51.148;7.014;2023-09-12T08:45:05;3.47;;;3.17;;
6755;SDS011;3415;51.148;7.014;2023-09-12T08:47:37;3.77;;;3.17;;
6755;SDS011;3415;51.148;7.014;2023-09-12T08:50:07;3.73;;;2.90;;
6755;SDS011;3415;51.148;7.014;2023-09-12T08:52:37;5.27;;;3.30;;
6755;SDS011;3415;51.148;7.014;2023-09-12T08:55:04;4.20;;;2.90;;
6755;SDS011;3415;51.148;7.014;2023-09-12T08:57:32;4.70;;;3.03;;
6755;SDS011;3415;51.148;7.014;2023-09-12T09:00:02;5.50;;;3.60;;
6755;SDS011;3415;51.148;7.014;2023-09-12T09:02:31;10.40;;;3.43;;
6755;SDS011;3415;51.148;7.014;2023-09-12T09:04:59;5.07;;;3.30;;
6755;SDS011;3415;51.148;7.014;2023-09-12T09:07:30;8.30;;;3.40;;
6755;SDS011;3415;51.148;7.014;2023-09-12T09:10:00;7.00;;;3.40;;
6755;SDS011;3415;51.148;7.014;2023-09-12T09:12:29;6.43;;;3.53;;
6755;SDS011;3415;51.148;7.014;2023-09-12T09:14:55;6.33;;;3.83;;
6755;SDS011;3415;51.148;7.014;2023-09-12T09:17:22;9.43;;;3.53;;
6755;SDS011;3415;51.148;7.014;2023-09-12T09:19:49;4.27;;;3.33;;
6755;SDS011;3415;51.148;7.014;2023-09-12T09:22:16;4.80;;;4.20;;
6755;SDS011;3415;51.148;7.014;2023-09-12T09:24:43;5.20;;;3.40;;
6755;SDS011;3415;51.148;7.014;2023-09-12T09:27:11;5.23;;;4.80;;
6755;SDS011;3415;51.148;7.014;2023-09-12T09:29:47;7.13;;;3.47;;
6755;SDS011;3415;51.148;7.014;2023-09-12T09:32:17;3.40;;;2.97;;
6755;SDS011;3415;51.148;7.014;2023-09-12T09:34:46;4.00;;;3.10;;
6755;SDS011;3415;51.148;7.014;2023-09-12T09:37:13;6.93;;;3.20;;
6755;SDS011;3415;51.148;7.014;2023-09-12T09:39:40;3.27;;;3.00;;
6755;SDS011;3415;51.148;7.014;2023-09-12T09:42:09;7.43;;;3.50;;
6755;SDS011;3415;51.148;7.014;2023-09-12T09:44:38;4.03;;;2.60;;
6755;SDS011;3415;51.148;7.014;2023-09-12T09:47:04;3.60;;;3.30;;
6755;SDS011;3415;51.148;7.014;2023-09-12T09:49:31;3.10;;;2.67;;
6755;SDS011;3415;51.148;7.014;2023-09-12T09:51:59;3.20;;;2.90;;
6755;SDS011;3415;51.148;7.014;2023-09-12T09:54:29;4.60;;;3.23;;
6755;SDS011;3415;51.148;7.014;2023-09-12T09:56:56;3.40;;;3.10;;
6755;SDS011;3415;51.148;7.014;2023-09-12T09:59:25;3.67;;;3.00;;
6755;SDS011;3415;51.148;7.014;2023-09-12T10:01:55;5.60;;;3.13;;
6755;SDS011;3415;51.148;7.014;2023-09-12T10:04:23;6.63;;;3.47;;
6755;SDS011;3415;51.148;7.014;2023-09-12T10:06:52;4.87;;;3.20;;
6755;SDS011;3415;51.148;7.014;2023-09-12T10:09:25;5.87;;;3.50;;
6755;SDS011;3415;51.148;7.014;2023-09-12T10:11:52;3.87;;;3.20;;
6755;SDS011;3415;51.148;7.014;2023-09-12T10:14:22;3.73;;;3.43;;
6755;SDS011;3415;51.148;7.014;2023-09-12T10:16:51;3.40;;;3.00;;
6755;SDS011;3415;51.148;7.014;2023-09-12T10:19:24;7.23;;;3.63;;
6755;SDS011;3415;51.148;7.014;2023-09-12T10:21:58;3.30;;;3.00;;
6755;SDS011;3415;51.148;7.014;2023-09-12T10:24:30;3.90;;;3.13;;
6755;SDS011;3415;51.148;7.014;2023-09-12T10:26:59;6.27;;;4.10;;
6755;SDS011;3415;51.148;7.014;2023-09-12T10:29:27;3.17;;;2.97;;
6755;SDS011;3415;51.148;7.014;2023-09-12T10:31:56;5.73;;;3.80;;
6755;SDS011;3415;51.148;7.014;2023-09-12T10:34:24;4.17;;;3.07;;
6755;SDS011;3415;51.148;7.014;2023-09-12T10:36:51;3.77;;;3.00;;
6755;SDS011;3415;51.148;7.014;2023-09-12T10:39:21;5.10;;;3.33;;
6755;SDS011;3415;51.148;7.014;2023-09-12T10:41:50;6.90;;;3.03;;
6755;SDS011;3415;51.148;7.014;2023-09-12T10:44:20;4.90;;;3.50;;
6755;SDS011;3415;51.148;7.014;2023-09-12T10:46:47;6.33;;;3.60;;
6755;SDS011;3415;51.148;7.014;2023-09-12T10:49:17;7.27;;;3.67;;
6755;SDS011;3415;51.148;7.014;2023-09-12T10:51:44;5.30;;;3.70;;
6755;SDS011;3415;51.148;7.014;2023-09-12T10:54:13;5.10;;;3.80;;
6755;SDS011;3415;51.148;7.014;2023-09-12T10:56:41;7.77;;;3.47;;
6755;SDS011;3415;51.148;7.014;2023-09-12T10:59:10;5.20;;;3.80;;
6755;SDS011;3415;51.148;7.014;2023-09-12T11:01:39;5.30;;;3.70;;
6755;SDS011;3415;51.148;7.014;2023-09-12T11:07:00;5.90;;;3.90;;
6755;SDS011;3415;51.148;7.014;2023-09-12T11:09:27;5.90;;;3.90;;
6755;SDS011;3415;51.148;7.014;2023-09-12T11:11:54;5.40;;;3.80;;
6755;SDS011;3415;51.148;7.014;2023-09-12T11:14:23;6.13;;;3.63;;
6755;SDS011;3415;51.148;7.014;2023-09-12T11:19:50;4.10;;;3.80;;
6755;SDS011;3415;51.148;7.014;2023-09-12T11:22:21;4.60;;;3.50;;
6755;SDS011;3415;51.148;7.014;2023-09-12T11:24:50;4.60;;;3.47;;
6755;SDS011;3415;51.148;7.014;2023-09-12T11:27:17;5.93;;;4.20;;
6755;SDS011;3415;51.148;7.014;2023-09-12T11:29:44;4.23;;;3.70;;
6755;SDS011;3415;51.148;7.014;2023-09-12T11:32:13;6.67;;;3.67;;
6755;SDS011;3415;51.148;7.014;2023-09-12T11:34:53;4.00;;;3.60;;
6755;SDS011;3415;51.148;7.014;2023-09-12T11:37:24;6.03;;;3.50;;
6755;SDS011;3415;51.148;7.014;2023-09-12T11:39:51;11.33;;;3.80;;
6755;SDS011;3415;51.148;7.014;2023-09-12T11:42:19;5.30;;;3.43;;
6755;SDS011;3415;51.148;7.014;2023-09-12T11:44:48;5.97;;;3.10;;
6755;SDS011;3415;51.148;7.014;2023-09-12T11:47:15;3.90;;;2.97;;
6755;SDS011;3415;51.148;7.014;2023-09-12T11:49:42;5.67;;;3.80;;
6755;SDS011;3415;51.148;7.014;2023-09-12T11:52:10;4.23;;;3.70;;
6755;SDS011;3415;51.148;7.014;2023-09-12T11:54:38;7.60;;;3.33;;
6755;SDS011;3415;51.148;7.014;2023-09-12T11:57:06;4.73;;;3.47;;
6755;SDS011;3415;51.148;7.014;2023-09-12T11:59:36;4.23;;;3.40;;
6755;SDS011;3415;51.148;7.014;2023-09-12T12:02:05;4.37;;;3.57;;
6755;SDS011;3415;51.148;7.014;2023-09-12T12:04:33;2.83;;;2.60;;
6755;SDS011;3415;51.148;7.014;2023-09-12T12:07:01;5.20;;;3.60;;
6755;SDS011;3415;51.148;7.014;2023-09-12T12:09:30;3.33;;;3.03;;
6755;SDS011;3415;51.148;7.014;2023-09-12T12:12:02;9.07;;;3.50;;
6755;SDS011;3415;51.148;7.014;2023-09-12T12:14:30;3.83;;;3.40;;
6755;SDS011;3415;51.148;7.014;2023-09-12T12:17:05;6.77;;;3.23;;
6755;SDS011;3415;51.148;7.014;2023-09-12T12:19:33;5.93;;;3.73;;
6755;SDS011;3415;51.148;7.014;2023-09-12T12:22:01;4.50;;;3.43;;
6755;SDS011;3415;51.148;7.014;2023-09-12T12:24:37;4.00;;;3.20;;
6755;SDS011;3415;51.148;7.014;2023-09-12T12:27:04;3.43;;;3.13;;
6755;SDS011;3415;51.148;7.014;2023-09-12T12:29:32;5.50;;;3.83;;
6755;SDS011;3415;51.148;7.014;2023-09-12T12:32:00;3.23;;;2.93;;
6755;SDS011;3415;51.148;7.014;2023-09-12T12:34:27;3.77;;;3.37;;
6755;SDS011;3415;51.148;7.014;2023-09-12T12:36:55;5.93;;;3.93;;
6755;SDS011;3415;51.148;7.014;2023-09-12T12:39:22;4.07;;;3.70;;
6755;SDS011;3415;51.148;7.014;2023-09-12T12:41:52;3.77;;;3.47;;
6755;SDS011;3415;51.148;7.014;2023-09-12T12:44:19;4.30;;;3.60;;
6755;SDS011;3415;51.148;7.014;2023-09-12T12:46:49;4.43;;;3.87;;
6755;SDS011;3415;51.148;7.014;2023-09-12T12:49:17;5.37;;;3.53;;
6755;SDS011;3415;51.148;7.014;2023-09-12T12:51:44;5.00;;;3.50;;
6755;SDS011;3415;51.148;7.014;2023-09-12T12:54:11;5.37;;;3.47;;
6755;SDS011;3415;51.148;7.014;2023-09-12T12:56:38;3.77;;;3.47;;
6755;SDS011;3415;51.148;7.014;2023-09-12T12:59:07;5.83;;;4.37;;
6755;SDS011;3415;51.148;7.014;2023-09-12T13:01:34;7.00;;;3.47;;
6755;SDS011;3415;51.148;7.014;2023-09-12T13:04:04;5.33;;;3.67;;
6755;SDS011;3415;51.148;7.014;2023-09-12T13:06:31;5.30;;;3.40;;
6755;SDS011;3415;51.148;7.014;2023-09-12T13:09:00;4.30;;;3.90;;
6755;SDS011;3415;51.148;7.014;2023-09-12T13:11:30;5.70;;;3.70;;
6755;SDS011;3415;51.148;7.014;2023-09-12T13:13:58;5.83;;;3.80;;
6755;SDS011;3415;51.148;7.014;2023-09-12T13:16:26;4.63;;;3.03;;
6755;SDS011;3415;51.148;7.014;2023-09-12T13:18:54;5.97;;;3.60;;
6755;SDS011;3415;51.148;7.014;2023-09-12T13:21:20;4.53;;;3.70;;
6755;SDS011;3415;51.148;7.014;2023-09-12T13:23:47;6.03;;;4.00;;
6755;SDS011;3415;51.148;7.014;2023-09-12T13:26:14;4.30;;;3.50;;
6755;SDS011;3415;51.148;7.014;2023-09-12T13:28:41;4.80;;;4.13;;
6755;SDS011;3415;51.148;7.014;2023-09-12T13:31:07;4.20;;;3.80;;
6755;SDS011;3415;51.148;7.014;2023-09-12T13:33:35;4.20;;;3.00;;
6755;SDS011;3415;51.148;7.014;2023-09-12T13:36:02;4.90;;;3.50;;
6755;SDS011;3415;51.148;7.014;2023-09-12T13:38:29;10.50;;;3.47;;
6755;SDS011;3415;51.148;7.014;2023-09-12T13:40:56;5.40;;;3.30;;
6755;SDS011;3415;51.148;7.014;2023-09-12T13:43:23;7.93;;;3.97;;
6755;SDS011;3415;51.148;7.014;2023-09-12T13:45:50;8.33;;;3.80;;
6755;SDS011;3415;51.148;7.014;2023-09-12T13:48:17;5.20;;;3.90;;
6755;SDS011;3415;51.148;7.014;2023-09-12T13:50:45;3.93;;;3.53;;
6755;SDS011;3415;51.148;7.014;2023-09-12T13:53:11;4.60;;;3.70;;
6755;SDS011;3415;51.148;7.014;2023-09-12T13:55:39;8.40;;;6.00;;
6755;SDS011;3415;51.148;7.014;2023-09-12T13:58:06;5.47;;;3.47;;
6755;SDS011;3415;51.148;7.014;2023-09-12T14:00:33;4.10;;;3.57;;
6755;SDS011;3415;51.148;7.014;2023-09-12T14:03:01;4.37;;;3.50;;
6755;SDS011;3415;51.148;7.014;2023-09-12T14:05:28;4.20;;;3.80;;
6755;SDS011;3415;51.148;7.014;2023-09-12T14:07:56;5.67;;;3.43;;
6755;SDS011;3415;51.148;7.014;2023-09-12T14:10:23;5.43;;;3.20;;
6755;SDS011;3415;51.148;7.014;2023-09-12T14:12:49;4.17;;;3.40;;
6755;SDS011;3415;51.148;7.014;2023-09-12T14:15:16;6.70;;;3.73;;
6755;SDS011;3415;51.148;7.014;2023-09-12T14:17:43;8.00;;;3.63;;
6755;SDS011;3415;51.148;7.014;2023-09-12T14:20:10;4.50;;;4.00;;
6755;SDS011;3415;51.148;7.014;2023-09-12T14:22:40;7.03;;;3.97;;
6755;SDS011;3415;51.148;7.014;2023-09-12T14:25:09;4.43;;;4.03;;
6755;SDS011;3415;51.148;7.014;2023-09-12T14:27:39;5.60;;;4.20;;
6755;SDS011;3415;51.148;7.014;2023-09-12T14:30:07;10.67;;;4.53;;
6755;SDS011;3415;51.148;7.014;2023-09-12T14:32:35;8.27;;;4.03;;
6755;SDS011;3415;51.148;7.014;2023-09-12T14:35:02;6.60;;;4.20;;
6755;SDS011;3415;51.148;7.014;2023-09-12T14:37:29;5.97;;;4.27;;
6755;SDS011;3415;51.148;7.014;2023-09-12T14:39:56;5.30;;;3.70;;
6755;SDS011;3415;51.148;7.014;2023-09-12T14:42:25;3.80;;;3.50;;
6755;SDS011;3415;51.148;7.014;2023-09-12T14:44:54;8.83;;;4.33;;
6755;SDS011;3415;51.148;7.014;2023-09-12T14:47:21;6.40;;;3.77;;
6755;SDS011;3415;51.148;7.014;2023-09-12T14:49:48;5.40;;;3.17;;
6755;SDS011;3415;51.148;7.014;2023-09-12T14:52:14;5.50;;;4.40;;
6755;SDS011;3415;51.148;7.014;2023-09-12T14:54:41;5.73;;;3.40;;
6755;SDS011;3415;51.148;7.014;2023-09-12T14:57:08;5.23;;;3.47;;
6755;SDS011;3415;51.148;7.014;2023-09-12T14:59:36;3.83;;;3.07;;
6755;SDS011;3415;51.148;7.014;2023-09-12T15:02:03;4.17;;;3.47;;
6755;SDS011;3415;51.148;7.014;2023-09-12T15:04:30;9.03;;;4.40;;
6755;SDS011;3415;51.148;7.014;2023-09-12T15:06:56;3.93;;;3.50;;
6755;SDS011;3415;51.148;7.014;2023-09-12T15:09:23;6.93;;;4.10;;
6755;SDS011;3415;51.148;7.014;2023-09-12T15:11:50;5.03;;;3.60;;
6755;SDS011;3415;51.148;7.014;2023-09-12T15:14:17;6.20;;;4.00;;
6755;SDS011;3415;51.148;7.014;2023-09-12T15:16:45;4.23;;;3.73;;
6755;SDS011;3415;51.148;7.014;2023-09-12T15:19:11;3.80;;;3.50;;
6755;SDS011;3415;51.148;7.014;2023-09-12T15:21:38;6.40;;;4.10;;
6755;SDS011;3415;51.148;7.014;2023-09-12T15:24:05;4.57;;;3.37;;
6755;SDS011;3415;51.148;7.014;2023-09-12T15:26:33;4.03;;;3.63;;